createdAt,value
2022-09-28T00:00:14.430Z,14.11
2022-09-28T00:02:43.715Z,14.31
2022-09-28T00:05:13.697Z,13.58
2022-09-28T00:07:44.844Z,13.34
2022-09-28T00:10:14.007Z,13.54
2022-09-28T00:12:43.316Z,13.81
2022-09-28T00:15:12.901Z,12.85
2022-09-28T00:17:44.936Z,12.97
2022-09-28T00:20:14.496Z,13.23
2022-09-28T00:22:45.321Z,13.81
2022-09-28T00:25:16.976Z,13.70
2022-09-28T00:27:51.762Z,13.97
2022-09-28T00:30:21.224Z,14.06
2022-09-28T00:32:50.582Z,13.92
2022-09-28T00:35:19.757Z,13.79
2022-09-28T00:37:52.231Z,13.94
2022-09-28T00:40:21.514Z,12.64
2022-09-28T00:42:50.781Z,12.79
2022-09-28T00:45:20.053Z,13.37
2022-09-28T00:47:52.238Z,13.66
2022-09-28T00:50:28.365Z,13.63
2022-09-28T00:53:01.402Z,12.76
2022-09-28T00:55:36.078Z,12.46
2022-09-28T00:58:08.628Z,13.56
2022-09-28T01:00:40.639Z,13.57
2022-09-28T01:03:10.958Z,13.37
2022-09-28T01:05:41.594Z,12.97
2022-09-28T01:08:13.572Z,13.05
2022-09-28T01:10:43.642Z,13.38
2022-09-28T01:13:13.504Z,13.24
2022-09-28T01:15:48.595Z,13.13
2022-09-28T01:18:23.905Z,13.19
2022-09-28T01:21:05.421Z,13.39
2022-09-28T01:24:11.068Z,13.47
2022-09-28T01:27:07.681Z,12.99
2022-09-28T01:29:53.542Z,13.10
2022-09-28T01:32:32.069Z,13.16
2022-09-28T01:35:06.725Z,13.34
2022-09-28T01:37:41.911Z,13.23
2022-09-28T01:40:12.149Z,13.16
2022-09-28T01:42:45.455Z,13.47
2022-09-28T01:45:18.613Z,12.72
2022-09-28T01:47:51.371Z,12.63
2022-09-28T01:50:24.543Z,13.32
2022-09-28T01:52:55.948Z,13.51
2022-09-28T01:55:30.726Z,12.95
2022-09-28T01:58:04.567Z,12.41
2022-09-28T02:00:34.944Z,12.38
2022-09-28T02:03:08.499Z,12.09
2022-09-28T02:05:40.576Z,12.73
2022-09-28T02:08:13.101Z,12.67
2022-09-28T02:10:45.956Z,13.43
2022-09-28T02:13:20.562Z,13.09
2022-09-28T02:15:55.352Z,12.29
2022-09-28T02:18:24.792Z,12.11
2022-09-28T02:21:00.444Z,12.60
2022-09-28T02:23:31.265Z,12.18
2022-09-28T02:26:04.920Z,12.08
2022-09-28T02:28:35.634Z,11.84
2022-09-28T02:31:05.377Z,12.27
2022-09-28T02:33:37.855Z,12.59
2022-09-28T02:36:07.808Z,13.10
2022-09-28T02:38:38.680Z,12.89
2022-09-28T02:41:13.595Z,12.78
2022-09-28T02:43:55.216Z,12.10
2022-09-28T02:46:31.407Z,11.86
2022-09-28T02:49:24.361Z,12.49
2022-09-28T02:52:23.420Z,12.90
2022-09-28T02:55:20.943Z,12.27
2022-09-28T02:58:09.849Z,12.37
2022-09-28T03:00:46.684Z,11.73
2022-09-28T03:03:20.846Z,12.03
2022-09-28T03:06:01.385Z,12.89
2022-09-28T03:08:35.676Z,12.78
2022-09-28T03:11:07.119Z,12.70
2022-09-28T03:13:37.706Z,12.70
2022-09-28T03:16:13.812Z,12.81
2022-09-28T03:18:43.500Z,12.87
2022-09-28T03:21:14.089Z,13.01
2022-09-28T03:23:45.230Z,12.88
2022-09-28T03:26:16.940Z,12.74
2022-09-28T03:28:46.649Z,12.43
2022-09-28T03:31:20.954Z,12.23
2022-09-28T03:33:50.722Z,12.21
2022-09-28T03:36:20.190Z,12.78
2022-09-28T03:38:49.798Z,12.45
2022-09-28T03:41:20.066Z,12.23
2022-09-28T03:43:53.007Z,12.47
2022-09-28T03:46:23.940Z,13.04
2022-09-28T03:48:53.606Z,12.56
2022-09-28T03:51:22.827Z,12.37
2022-09-28T03:53:52.355Z,12.48
2022-09-28T03:56:22.061Z,12.39
2022-09-28T03:58:51.451Z,12.18
2022-09-28T04:01:22.496Z,12.13
2022-09-28T04:03:56.058Z,12.07
2022-09-28T04:06:25.786Z,12.67
2022-09-28T04:08:55.486Z,12.24
2022-09-28T04:11:25.488Z,11.76
2022-09-28T04:13:54.966Z,11.99
2022-09-28T04:16:26.422Z,12.03
2022-09-28T04:18:56.738Z,11.62
2022-09-28T04:21:26.750Z,11.93
2022-09-28T04:23:58.202Z,11.78
2022-09-28T04:26:29.144Z,12.15
2022-09-28T04:29:16.288Z,12.07
2022-09-28T04:31:49.793Z,11.65
2022-09-28T04:34:21.136Z,11.73
2022-09-28T04:36:51.509Z,11.73
2022-09-28T04:39:21.670Z,11.44
2022-09-28T04:41:51.349Z,11.76
2022-09-28T04:44:23.153Z,11.97
2022-09-28T04:46:56.150Z,12.10
2022-09-28T04:49:25.813Z,12.57
2022-09-28T04:51:55.295Z,11.87
2022-09-28T04:54:24.954Z,11.74
2022-09-28T04:56:54.314Z,11.56
2022-09-28T04:59:23.876Z,12.13
2022-09-28T05:01:55.046Z,11.62
2022-09-28T05:04:26.264Z,11.29
2022-09-28T05:06:55.714Z,11.78
2022-09-28T05:09:25.785Z,12.64
2022-09-28T05:11:55.185Z,12.20
2022-09-28T05:14:24.862Z,11.09
2022-09-28T05:16:56.203Z,11.40
2022-09-28T05:19:25.798Z,11.58
2022-09-28T05:21:58.083Z,11.90
2022-09-28T05:24:27.579Z,11.97
2022-09-28T05:26:57.162Z,12.08
2022-09-28T05:29:31.341Z,12.09
2022-09-28T05:32:03.061Z,12.06
2022-09-28T05:34:33.147Z,11.98
2022-09-28T05:37:03.191Z,12.05
2022-09-28T05:39:32.699Z,11.62
2022-09-28T05:42:02.247Z,12.39
2022-09-28T05:44:32.720Z,12.21
2022-09-28T05:47:03.662Z,12.18
2022-09-28T05:49:33.492Z,12.28
2022-09-28T05:52:03.655Z,11.48
2022-09-28T05:54:33.736Z,11.36
2022-09-28T05:57:03.482Z,11.77
2022-09-28T05:59:35.285Z,12.46
2022-09-28T06:02:09.036Z,12.37
2022-09-28T06:04:39.084Z,12.07
2022-09-28T06:07:08.628Z,12.25
2022-09-28T06:09:38.558Z,11.96
2022-09-28T06:12:08.592Z,12.32
2022-09-28T06:14:39.101Z,12.57
2022-09-28T06:17:10.390Z,12.85
2022-09-28T06:19:39.691Z,12.80
2022-09-28T06:22:09.521Z,12.37
2022-09-28T06:24:39.014Z,11.55
2022-09-28T06:27:08.379Z,12.33
2022-09-28T06:29:37.483Z,12.52
2022-09-28T06:32:09.245Z,12.78
2022-09-28T06:34:38.823Z,12.93
2022-09-28T06:37:08.845Z,12.33
2022-09-28T06:39:38.355Z,12.10
2022-09-28T06:42:08.427Z,12.50
2022-09-28T06:44:38.019Z,12.35
2022-09-28T06:47:09.698Z,12.98
2022-09-28T06:49:39.618Z,13.08
2022-09-28T06:52:09.094Z,12.89
2022-09-28T06:54:39.495Z,13.05
2022-09-28T06:57:08.864Z,13.42
2022-09-28T06:59:42.802Z,12.79
2022-09-28T07:02:15.038Z,13.72
2022-09-28T07:04:44.876Z,13.16
2022-09-28T07:07:14.912Z,13.79
2022-09-28T07:09:49.400Z,13.47
2022-09-28T07:12:20.715Z,13.15
2022-09-28T07:14:50.561Z,13.65
2022-09-28T07:17:21.477Z,12.88
2022-09-28T07:19:52.861Z,13.39
2022-09-28T07:22:34.896Z,13.22
2022-09-28T07:25:10.129Z,13.41
2022-09-28T07:27:39.710Z,13.34
2022-09-28T07:30:10.198Z,12.85
2022-09-28T07:32:41.420Z,12.89
2022-09-28T07:35:10.863Z,13.45
2022-09-28T07:37:40.146Z,12.32
2022-09-28T07:40:28.938Z,13.20
2022-09-28T07:42:58.443Z,13.70
2022-09-28T07:45:30.609Z,12.87
2022-09-28T07:48:01.536Z,12.70
2022-09-28T07:50:30.901Z,12.89
2022-09-28T07:53:00.630Z,12.17
2022-09-28T07:55:29.845Z,13.26
2022-09-28T07:58:01.856Z,13.45
2022-09-28T08:00:34.318Z,13.67
2022-09-28T08:03:05.203Z,12.86
2022-09-28T08:05:36.120Z,13.47
2022-09-28T08:08:05.395Z,13.80
2022-09-28T08:10:34.949Z,13.55
2022-09-28T08:13:06.474Z,12.12
2022-09-28T08:15:38.399Z,12.26
2022-09-28T08:18:10.567Z,12.69
2022-09-28T08:20:57.579Z,12.05
2022-09-28T08:23:27.403Z,12.83
2022-09-28T08:25:56.828Z,13.42
2022-09-28T08:28:26.699Z,12.53
2022-09-28T08:30:56.619Z,13.32
2022-09-28T08:33:27.805Z,13.20
2022-09-28T08:35:58.495Z,13.27
2022-09-28T08:38:29.091Z,13.06
2022-09-28T08:41:06.546Z,13.71
2022-09-28T08:44:05.286Z,13.51
2022-09-28T08:46:37.297Z,13.80
2022-09-28T08:49:24.576Z,14.10
2022-09-28T08:51:58.811Z,13.80
2022-09-28T08:54:34.926Z,13.51
2022-09-28T08:57:08.829Z,13.11
2022-09-28T08:59:46.619Z,13.56
2022-09-28T09:02:19.934Z,13.35
2022-09-28T09:04:51.780Z,13.59
2022-09-28T09:07:47.806Z,13.37
2022-09-28T09:10:33.985Z,13.50
2022-09-28T09:13:24.199Z,13.28
2022-09-28T09:16:01.627Z,13.14
2022-09-28T09:18:37.939Z,13.32
2022-09-28T09:21:14.084Z,13.34
2022-09-28T09:23:54.229Z,12.98
2022-09-28T09:26:35.350Z,13.30
2022-09-28T09:29:23.050Z,13.67
2022-09-28T09:32:11.852Z,13.24
2022-09-28T09:34:52.965Z,13.06
2022-09-28T09:37:44.437Z,13.81
2022-09-28T09:40:30.523Z,13.45
2022-09-28T09:43:12.638Z,14.00
2022-09-28T09:45:53.208Z,13.46
2022-09-28T09:48:27.069Z,12.93
2022-09-28T09:51:00.233Z,13.90
2022-09-28T09:53:37.755Z,13.16
2022-09-28T09:56:15.387Z,13.66
2022-09-28T09:58:48.836Z,14.23
2022-09-28T10:01:21.886Z,13.48
2022-09-28T10:03:53.172Z,13.72
2022-09-28T10:06:27.613Z,13.94
2022-09-28T10:09:04.913Z,14.24
2022-09-28T10:11:37.158Z,13.88
2022-09-28T10:14:08.257Z,13.53
2022-09-28T10:16:37.988Z,13.79
2022-09-28T10:19:09.667Z,13.60
2022-09-28T10:21:41.290Z,13.77
2022-09-28T10:24:19.198Z,13.88
2022-09-28T10:26:51.731Z,14.30
2022-09-28T10:29:23.538Z,14.05
2022-09-28T10:31:53.628Z,14.10
2022-09-28T10:34:28.552Z,14.26
2022-09-28T10:37:00.704Z,14.63
2022-09-28T10:39:34.371Z,14.70
2022-09-28T10:42:06.952Z,14.88
2022-09-28T10:44:44.963Z,14.87
2022-09-28T10:47:18.269Z,14.74
2022-09-28T10:49:49.499Z,14.59
2022-09-28T10:52:40.095Z,14.71
2022-09-28T10:55:39.061Z,14.44
2022-09-28T10:58:28.007Z,14.43
2022-09-28T11:01:05.291Z,14.45
2022-09-28T11:03:34.861Z,14.86
2022-09-28T11:06:06.669Z,14.87
2022-09-28T11:08:38.963Z,14.92
2022-09-28T11:11:12.559Z,15.07
2022-09-28T11:13:44.666Z,15.01
2022-09-28T11:16:26.379Z,14.80
2022-09-28T11:18:55.696Z,14.56
2022-09-28T11:21:27.398Z,15.12
2022-09-28T11:24:08.321Z,15.07
2022-09-28T11:26:43.545Z,15.06
2022-09-28T11:29:22.927Z,15.16
2022-09-28T11:31:53.427Z,15.02
2022-09-28T11:34:36.512Z,14.63
2022-09-28T11:37:39.722Z,14.91
2022-09-28T11:40:21.842Z,15.17
2022-09-28T11:43:00.306Z,15.23
2022-09-28T11:45:42.532Z,15.16
2022-09-28T11:48:15.772Z,15.22
2022-09-28T11:50:50.080Z,15.44
2022-09-28T11:53:24.720Z,15.33
2022-09-28T11:55:58.877Z,15.76
2022-09-28T11:58:34.413Z,15.69
2022-09-28T12:01:07.062Z,16.11
2022-09-28T12:03:42.211Z,16.21
2022-09-28T12:06:16.947Z,16.30
2022-09-28T12:08:52.083Z,16.53
2022-09-28T12:11:25.236Z,16.42
2022-09-28T12:13:58.105Z,16.37
2022-09-28T12:19:22.484Z,15.78
2022-09-28T12:21:53.077Z,16.01
2022-09-28T12:24:26.367Z,15.84
2022-09-28T12:26:58.611Z,15.61
2022-09-28T12:29:33.288Z,15.96
2022-09-28T12:32:09.333Z,15.90
2022-09-28T12:34:38.478Z,16.51
2022-09-28T12:37:25.810Z,16.62
2022-09-28T12:40:08.008Z,16.91
2022-09-28T12:42:49.483Z,17.20
2022-09-28T12:46:10.584Z,17.90
2022-09-28T12:49:24.090Z,17.73
2022-09-28T12:51:49.175Z,17.88
2022-09-28T12:54:44.343Z,17.58
2022-09-28T12:57:37.706Z,17.37
2022-09-28T13:00:10.278Z,17.34
2022-09-28T13:02:57.507Z,17.63
2022-09-28T13:05:46.665Z,17.53
2022-09-28T13:08:19.549Z,17.45
2022-09-28T13:10:53.528Z,17.33
2022-09-28T13:13:34.756Z,17.32
2022-09-28T13:16:09.709Z,17.36
2022-09-28T13:18:45.150Z,17.67
2022-09-28T13:21:24.423Z,17.34
2022-09-28T13:24:08.761Z,17.35
2022-09-28T13:26:47.182Z,17.48
2022-09-28T13:29:19.272Z,17.59
2022-09-28T13:31:50.636Z,17.56
2022-09-28T13:34:22.705Z,17.26
2022-09-28T13:37:12.180Z,17.37
2022-09-28T13:39:52.879Z,17.11
2022-09-28T13:42:50.831Z,17.14
2022-09-28T13:45:40.360Z,17.23
2022-09-28T13:48:17.347Z,17.19
2022-09-28T13:51:06.171Z,17.13
2022-09-28T13:53:45.484Z,17.22
2022-09-28T13:56:27.026Z,17.13
2022-09-28T13:58:59.740Z,17.47
2022-09-28T14:01:31.243Z,16.95
2022-09-28T14:04:15.914Z,16.98
2022-09-28T14:06:49.426Z,17.01
2022-09-28T14:09:42.562Z,16.86
2022-09-28T14:12:31.284Z,17.05
2022-09-28T14:15:00.619Z,16.99
2022-09-28T14:18:00.270Z,17.00
2022-09-28T14:20:31.978Z,16.58
2022-09-28T14:23:29.929Z,16.48
2022-09-28T14:26:28.422Z,16.53
2022-09-28T14:29:09.959Z,16.64
2022-09-28T14:31:43.793Z,16.83
2022-09-28T14:34:34.250Z,16.94
2022-09-28T14:37:22.741Z,16.78
2022-09-28T14:40:09.572Z,16.83
2022-09-28T14:42:40.557Z,16.93
2022-09-28T14:45:38.935Z,16.90
2022-09-28T14:48:20.681Z,17.09
2022-09-28T14:50:50.353Z,16.93
2022-09-28T14:53:22.334Z,16.95
2022-09-28T14:55:52.754Z,16.91
2022-09-28T14:58:26.889Z,16.76
2022-09-28T15:01:01.599Z,16.79
2022-09-28T15:03:33.378Z,16.81
2022-09-28T15:06:02.863Z,16.68
2022-09-28T15:08:39.045Z,16.94
2022-09-28T15:11:12.487Z,16.74
2022-09-28T15:13:44.107Z,16.79
2022-09-28T15:16:15.038Z,16.96
2022-09-28T15:19:09.243Z,16.64
2022-09-28T15:21:42.949Z,16.49
2022-09-28T15:24:43.224Z,16.66
2022-09-28T15:27:19.065Z,16.56
2022-09-28T15:29:59.057Z,16.68
2022-09-28T15:32:29.775Z,16.47
2022-09-28T15:35:00.229Z,16.49
2022-09-28T15:37:36.494Z,16.43
2022-09-28T15:40:15.187Z,16.59
2022-09-28T15:42:45.462Z,16.57
2022-09-28T15:45:37.137Z,16.63
2022-09-28T15:48:27.711Z,16.63
2022-09-28T15:51:05.163Z,16.72
2022-09-28T15:53:35.244Z,16.62
2022-09-28T15:56:10.163Z,16.59
2022-09-28T15:58:40.591Z,16.56
2022-09-28T16:01:36.687Z,16.13
2022-09-28T16:04:36.303Z,16.21
2022-09-28T16:07:21.026Z,16.36
2022-09-28T16:10:02.251Z,16.45
2022-09-28T16:12:41.195Z,16.43
2022-09-28T16:15:18.321Z,16.19
2022-09-28T16:17:52.743Z,16.22
2022-09-28T16:20:29.851Z,16.31
2022-09-28T16:23:05.772Z,16.37
2022-09-28T16:25:37.216Z,16.33
2022-09-28T16:28:07.523Z,16.53
2022-09-28T16:30:36.988Z,16.44
2022-09-28T16:33:27.200Z,16.16
2022-09-28T16:35:56.393Z,15.98
2022-09-28T16:38:25.619Z,16.26
2022-09-28T16:40:55.173Z,16.36
2022-09-28T16:43:28.592Z,16.34
2022-09-28T16:45:58.621Z,15.98
2022-09-28T16:48:31.160Z,16.35
2022-09-28T16:51:00.802Z,16.38
2022-09-28T16:53:47.523Z,16.40
2022-09-28T16:56:16.819Z,16.18
2022-09-28T16:58:49.253Z,16.39
2022-09-28T17:01:19.727Z,15.98
2022-09-28T17:03:51.208Z,15.76
2022-09-28T17:06:22.222Z,15.71
2022-09-28T17:08:51.694Z,16.09
2022-09-28T17:11:24.617Z,15.93
2022-09-28T17:13:56.883Z,15.68
2022-09-28T17:16:49.735Z,15.66
2022-09-28T17:19:22.158Z,16.11
2022-09-28T17:21:51.458Z,16.08
2022-09-28T17:24:21.403Z,16.01
2022-09-28T17:26:52.677Z,16.01
2022-09-28T17:29:22.364Z,16.04
2022-09-28T17:31:52.186Z,16.19
2022-09-28T17:34:23.904Z,15.82
2022-09-28T17:36:53.983Z,16.07
2022-09-28T17:39:25.103Z,16.03
2022-09-28T17:41:54.277Z,16.06
2022-09-28T17:44:23.835Z,15.87
2022-09-28T17:46:54.010Z,15.67
2022-09-28T17:49:24.870Z,15.78
2022-09-28T17:51:54.311Z,15.52
2022-09-28T17:54:25.866Z,15.39
2022-09-28T17:56:55.665Z,15.55
2022-09-28T17:59:26.758Z,15.77
2022-09-28T18:01:58.319Z,15.75
2022-09-28T18:04:51.181Z,15.64
2022-09-28T18:07:21.124Z,15.48
2022-09-28T18:09:56.741Z,15.38
2022-09-28T18:12:29.052Z,15.68
2022-09-28T18:14:58.478Z,15.56
2022-09-28T18:17:28.155Z,15.44
2022-09-28T18:19:58.769Z,15.62
2022-09-28T18:22:28.166Z,16.00
2022-09-28T18:24:57.974Z,15.72
2022-09-28T18:27:28.821Z,15.75
2022-09-28T18:29:58.280Z,16.00
2022-09-28T18:32:28.022Z,16.03
2022-09-28T18:34:58.890Z,16.15
2022-09-28T18:37:28.176Z,15.64
2022-09-28T18:39:57.492Z,15.68
2022-09-28T18:42:26.953Z,15.87
2022-09-28T18:44:56.126Z,15.55
2022-09-28T18:47:25.699Z,15.88
2022-09-28T18:49:54.949Z,15.51
2022-09-28T18:52:26.182Z,15.37
2022-09-28T18:54:55.837Z,15.56
2022-09-28T18:57:25.148Z,15.67
2022-09-28T18:59:54.747Z,15.75
2022-09-28T19:02:24.132Z,15.59
2022-09-28T19:04:53.557Z,15.77
2022-09-28T19:07:24.589Z,15.81
2022-09-28T19:09:54.183Z,15.33
2022-09-28T19:12:23.936Z,15.16
2022-09-28T19:14:53.141Z,15.25
2022-09-28T19:17:22.445Z,15.28
2022-09-28T19:19:52.162Z,15.11
2022-09-28T19:22:21.646Z,15.29
2022-09-28T19:24:52.529Z,15.10
2022-09-28T19:27:22.438Z,15.16
2022-09-28T19:29:51.872Z,15.32
2022-09-28T19:32:21.314Z,15.23
2022-09-28T19:34:50.705Z,15.35
2022-09-28T19:37:20.047Z,15.28
2022-09-28T19:39:49.550Z,15.75
2022-09-28T19:42:21.290Z,15.89
2022-09-28T19:44:51.169Z,15.70
2022-09-28T19:47:28.676Z,15.42
2022-09-28T19:49:58.023Z,15.22
2022-09-28T19:52:27.081Z,15.23
2022-09-28T19:54:56.952Z,15.50
2022-09-28T19:57:29.685Z,15.29
2022-09-28T20:00:03.301Z,15.61
2022-09-28T20:02:34.929Z,15.24
2022-09-28T20:05:04.457Z,15.18
2022-09-28T20:07:34.922Z,14.92
2022-09-28T20:10:04.224Z,15.56
2022-09-28T20:12:35.162Z,15.15
2022-09-28T20:15:05.249Z,15.22
2022-09-28T20:17:34.848Z,15.34
2022-09-28T20:20:04.835Z,15.46
2022-09-28T20:22:34.498Z,15.35
2022-09-28T20:25:04.178Z,15.20
2022-09-28T20:27:35.354Z,15.20
2022-09-28T20:30:04.923Z,15.29
2022-09-28T20:32:35.245Z,15.57
2022-09-28T20:35:05.033Z,15.22
2022-09-28T20:37:34.694Z,15.75
2022-09-28T20:40:04.180Z,15.85
2022-09-28T20:42:34.817Z,15.41
2022-09-28T20:45:04.154Z,15.43
2022-09-28T20:47:33.755Z,15.47
2022-09-28T20:50:03.346Z,15.28
2022-09-28T20:52:32.500Z,15.51
2022-09-28T20:55:01.516Z,15.43
2022-09-28T20:57:31.406Z,15.74
2022-09-28T21:00:03.094Z,15.41
2022-09-28T21:02:33.636Z,15.71
2022-09-28T21:05:03.108Z,15.74
2022-09-28T21:07:32.814Z,15.79
2022-09-28T21:10:02.365Z,15.47
2022-09-28T21:12:31.890Z,15.07
2022-09-28T21:15:05.914Z,15.20
2022-09-28T21:17:35.563Z,14.98
2022-09-28T21:20:05.334Z,15.62
2022-09-28T21:22:35.906Z,15.69
2022-09-28T21:25:05.999Z,15.20
2022-09-28T21:27:35.582Z,15.20
2022-09-28T21:30:09.269Z,15.25
2022-09-28T21:32:40.213Z,14.96
2022-09-28T21:35:11.329Z,15.26
2022-09-28T21:37:41.324Z,15.11
2022-09-28T21:40:11.941Z,15.31
2022-09-28T21:42:42.986Z,15.45
2022-09-28T21:45:14.255Z,15.40
2022-09-28T21:47:47.748Z,15.18
2022-09-28T21:50:17.043Z,15.18
2022-09-28T21:52:46.343Z,15.49
2022-09-28T21:55:15.815Z,15.30
2022-09-28T21:57:46.494Z,15.19
2022-09-28T22:00:18.974Z,15.16
2022-09-28T22:02:48.999Z,15.08
2022-09-28T22:05:19.280Z,15.75
2022-09-28T22:07:48.479Z,15.64
2022-09-28T22:10:18.098Z,15.74
2022-09-28T22:12:48.219Z,15.45
2022-09-28T22:15:19.322Z,15.15
2022-09-28T22:17:48.659Z,15.24
2022-09-28T22:20:18.147Z,15.31
2022-09-28T22:22:50.915Z,15.09
2022-09-28T22:25:21.586Z,15.49
2022-09-28T22:27:50.797Z,15.61
2022-09-28T22:30:21.929Z,15.63
2022-09-28T22:32:51.214Z,15.14
2022-09-28T22:35:20.691Z,15.14
2022-09-28T22:37:50.081Z,15.71
2022-09-28T22:40:20.229Z,15.59
2022-09-28T22:42:50.266Z,15.75
2022-09-28T22:45:20.960Z,15.07
2022-09-28T22:47:51.435Z,14.99
2022-09-28T22:50:20.878Z,15.24
2022-09-28T22:52:52.078Z,15.67
2022-09-28T22:55:22.129Z,15.36
2022-09-28T22:57:51.670Z,15.14
2022-09-28T23:00:23.666Z,15.60
2022-09-28T23:02:53.472Z,15.47
2022-09-28T23:05:23.015Z,15.27
2022-09-28T23:07:52.625Z,15.58
2022-09-28T23:10:21.955Z,15.48
2022-09-28T23:12:51.280Z,15.36
2022-09-28T23:15:22.715Z,15.58
2022-09-28T23:17:53.010Z,15.20
2022-09-28T23:20:22.624Z,15.34
2022-09-28T23:22:52.311Z,15.21
2022-09-28T23:25:21.807Z,15.53
2022-09-28T23:27:51.878Z,15.57
2022-09-28T23:30:24.922Z,15.25
2022-09-28T23:32:54.419Z,15.29
2022-09-28T23:35:23.889Z,15.27
2022-09-28T23:37:53.345Z,15.44
2022-09-28T23:40:23.008Z,15.48
2022-09-28T23:42:52.996Z,15.38
2022-09-28T23:45:25.294Z,15.31
2022-09-28T23:47:55.039Z,15.28
2022-09-28T23:50:24.737Z,15.28
2022-09-28T23:52:54.165Z,15.33
2022-09-28T23:55:23.525Z,15.10
2022-09-28T23:57:55.697Z,15.35
